Time;durP1;ratioP1;P1;durP2;ratioP2;P2;SDS_P1;SDS_P2;PMS_P1;PMS_P2;Temp;Humidity;BMP_temperature;BMP_pressure;BME280_temperature;BME280_humidity;BME280_pressure;Samples;Min_cycle;Max_cycle;Signal;HPM_P1;HPM_P2
2021/10/15 00:01:14;;;;;;;2.80;1.77;;;13.40;99.90;;;;;;5058144;28;20078;-73
2021/10/15 00:03:40;;;;;;;5.40;2.67;;;13.40;99.90;;;;;;5060526;28;20035;-73
2021/10/15 00:06:05;;;;;;;1.65;1.55;;;13.40;99.90;;;;;;5058158;28;20111;-73
2021/10/15 00:08:30;;;;;;;2.08;1.95;;;13.40;99.90;;;;;;5066189;28;20020;-73
2021/10/15 00:10:56;;;;;;;2.47;1.75;;;13.40;99.90;;;;;;5052943;28;20029;-73
2021/10/15 00:13:21;;;;;;;2.72;2.50;;;13.40;99.90;;;;;;5061708;28;20549;-73
2021/10/15 00:15:47;;;;;;;1.52;1.20;;;13.40;99.90;;;;;;5057638;28;20055;-73
2021/10/15 00:18:12;;;;;;;3.13;2.78;;;13.40;99.90;;;;;;5063015;28;20029;-73
2021/10/15 00:20:38;;;;;;;1.58;1.45;;;13.40;99.90;;;;;;5060847;28;20161;-73
2021/10/15 00:23:03;;;;;;;2.63;2.30;;;13.40;99.90;;;;;;5059179;28;20048;-73
2021/10/15 00:25:29;;;;;;;5.72;2.08;;;13.40;99.90;;;;;;5058996;28;20025;-73
2021/10/15 00:27:54;;;;;;;2.45;2.22;;;13.40;99.90;;;;;;5055516;28;20036;-73
2021/10/15 00:30:20;;;;;;;3.33;1.70;;;13.40;99.90;;;;;;5069739;28;20090;-72
2021/10/15 00:32:45;;;;;;;3.50;1.65;;;13.40;99.90;;;;;;5055940;28;20020;-73
2021/10/15 00:35:11;;;;;;;9.43;2.28;;;13.40;99.90;;;;;;5052709;28;20766;-73
2021/10/15 00:37:36;;;;;;;1.77;1.35;;;13.40;99.90;;;;;;5057644;28;20025;-73
2021/10/15 00:40:03;;;;;;;2.50;1.95;;;13.40;99.90;;;;;;5051666;28;20233;-73
2021/10/15 00:42:28;;;;;;;2.47;1.83;;;13.40;99.90;;;;;;5059942;28;20045;-73
2021/10/15 00:44:54;;;;;;;1.45;1.35;;;13.40;99.90;;;;;;5054141;28;20071;-73
2021/10/15 00:47:19;;;;;;;3.75;2.00;;;13.40;99.90;;;;;;5061640;28;20479;-73
2021/10/15 00:49:45;;;;;;;9.43;2.47;;;13.40;99.90;;;;;;5058043;28;20049;-73
2021/10/15 00:52:10;;;;;;;2.70;1.35;;;13.40;99.90;;;;;;5059611;28;20020;-73
2021/10/15 00:54:36;;;;;;;1.27;1.17;;;13.30;99.90;;;;;;5054824;28;20025;-73
2021/10/15 00:57:02;;;;;;;1.00;1.00;;;13.40;99.90;;;;;;5055286;28;20419;-72
2021/10/15 00:59:28;;;;;;;2.47;1.55;;;13.40;99.90;;;;;;5063466;28;20024;-73
2021/10/15 01:01:53;;;;;;;1.77;1.67;;;13.40;99.90;;;;;;5061367;28;20082;-73
2021/10/15 01:04:19;;;;;;;0.85;0.85;;;13.40;99.90;;;;;;5057286;28;20535;-73
2021/10/15 01:06:44;;;;;;;2.10;1.70;;;13.40;99.90;;;;;;5053068;28;20149;-73
2021/10/15 01:09:10;;;;;;;1.75;1.60;;;13.40;99.90;;;;;;5057825;28;20032;-73
2021/10/15 01:11:36;;;;;;;1.33;1.15;;;13.30;99.90;;;;;;5058940;28;20028;-73
2021/10/15 01:14:02;;;;;;;6.63;1.52;;;13.40;99.90;;;;;;5058607;28;20052;-73
2021/10/15 01:16:30;;;;;;;1.25;1.00;;;13.40;99.90;;;;;;5062077;28;20031;-73
2021/10/15 01:18:57;;;;;;;1.90;1.30;;;13.40;99.90;;;;;;5058512;28;20017;-73
2021/10/15 01:21:23;;;;;;;4.10;1.45;;;13.30;99.90;;;;;;5060075;28;20029;-72
2021/10/15 01:23:49;;;;;;;1.00;0.90;;;13.30;99.90;;;;;;5061443;28;20029;-73
2021/10/15 01:26:14;;;;;;;1.42;1.20;;;13.30;99.90;;;;;;5063964;28;20029;-73
2021/10/15 01:28:40;;;;;;;0.82;0.77;;;13.30;99.90;;;;;;5054923;28;20499;-73
2021/10/15 01:31:06;;;;;;;0.82;0.82;;;13.30;99.90;;;;;;5057480;28;20028;-73
2021/10/15 01:33:32;;;;;;;0.80;0.75;;;13.30;99.90;;;;;;5060551;28;20100;-73
2021/10/15 01:35:57;;;;;;;0.90;0.90;;;13.30;99.90;;;;;;5058933;28;20120;-73
2021/10/15 01:38:23;;;;;;;3.83;1.40;;;13.30;99.90;;;;;;5058277;28;20029;-73
2021/10/15 01:40:48;;;;;;;0.75;0.75;;;13.30;99.90;;;;;;5059184;28;20438;-73
2021/10/15 01:43:22;;;;;;;8.80;0.88;;;13.30;99.90;;;;;;5059233;28;20521;-73
2021/10/15 01:45:48;;;;;;;1.85;1.15;;;13.30;99.90;;;;;;5060788;28;20052;-73
2021/10/15 01:48:13;;;;;;;1.30;1.20;;;13.30;99.90;;;;;;5060377;28;20506;-74
2021/10/15 01:50:39;;;;;;;1.02;0.75;;;13.30;99.90;;;;;;5053010;28;20025;-74
2021/10/15 01:53:04;;;;;;;2.97;1.23;;;13.30;99.90;;;;;;5058816;28;20494;-73
2021/10/15 01:55:30;;;;;;;1.27;1.17;;;13.30;99.90;;;;;;5059485;28;20032;-72
2021/10/15 01:57:55;;;;;;;0.95;0.65;;;13.30;99.90;;;;;;5053488;28;20226;-73
2021/10/15 02:00:21;;;;;;;0.88;0.88;;;13.30;99.90;;;;;;5055233;28;20024;-73
2021/10/15 02:02:46;;;;;;;0.55;0.55;;;13.30;99.90;;;;;;5057025;28;20036;-73
2021/10/15 02:05:14;;;;;;;0.63;0.63;;;13.20;99.90;;;;;;5055455;28;20028;-73
2021/10/15 02:07:41;;;;;;;0.47;0.47;;;13.30;99.90;;;;;;5051560;28;20426;-73
2021/10/15 02:10:08;;;;;;;1.42;0.82;;;13.30;99.90;;;;;;5062888;28;20402;-73
2021/10/15 02:12:34;;;;;;;0.75;0.75;;;13.20;99.90;;;;;;5064316;28;20110;-73
2021/10/15 02:15:00;;;;;;;0.73;0.57;;;13.20;99.90;;;;;;5061940;28;20542;-73
2021/10/15 02:17:25;;;;;;;1.00;0.98;;;13.20;99.90;;;;;;5060037;28;20175;-73
2021/10/15 02:19:51;;;;;;;1.63;1.52;;;13.20;99.90;;;;;;5065169;28;20170;-73
2021/10/15 02:22:16;;;;;;;0.93;0.57;;;13.20;99.90;;;;;;5059174;28;20052;-73
2021/10/15 02:24:42;;;;;;;2.67;1.15;;;13.20;99.90;;;;;;5068011;28;20037;-73
2021/10/15 02:27:07;;;;;;;0.10;0.10;;;13.20;99.90;;;;;;5062854;28;20047;-73
2021/10/15 02:29:33;;;;;;;1.17;1.17;;;13.20;99.90;;;;;;5054792;28;20108;-73
2021/10/15 02:31:58;;;;;;;0.95;0.95;;;13.20;99.90;;;;;;5057229;28;20024;-72
2021/10/15 02:34:24;;;;;;;2.45;1.45;;;13.20;99.90;;;;;;5055263;28;20031;-73
2021/10/15 02:36:49;;;;;;;0.52;0.52;;;13.20;99.90;;;;;;5057226;28;20025;-73
2021/10/15 02:39:15;;;;;;;0.70;0.70;;;13.20;99.90;;;;;;5053692;28;20483;-73
2021/10/15 02:41:41;;;;;;;0.47;0.47;;;13.20;99.90;;;;;;5058038;28;20132;-73
2021/10/15 02:44:09;;;;;;;1.42;1.33;;;13.10;99.90;;;;;;5063811;28;20088;-72
2021/10/15 02:46:35;;;;;;;1.13;0.98;;;13.10;99.90;;;;;;5063499;28;20439;-73
2021/10/15 02:49:01;;;;;;;0.50;0.50;;;13.10;99.90;;;;;;5059017;28;20029;-74
2021/10/15 02:51:27;;;;;;;0.65;0.65;;;13.10;99.90;;;;;;5051748;28;20102;-73
2021/10/15 02:53:52;;;;;;;0.85;0.85;;;13.10;99.90;;;;;;5059766;28;20471;-73
2021/10/15 02:56:18;;;;;;;1.38;0.93;;;13.10;99.90;;;;;;5058908;28;20021;-72
2021/10/15 02:58:43;;;;;;;1.77;1.58;;;13.10;99.90;;;;;;5049189;28;20549;-72
2021/10/15 03:01:09;;;;;;;5.78;0.65;;;13.10;99.90;;;;;;5057453;28;20581;-73
2021/10/15 03:03:34;;;;;;;0.82;0.50;;;13.10;99.90;;;;;;5054904;28;20051;-73
2021/10/15 03:06:00;;;;;;;13.35;2.20;;;13.10;99.90;;;;;;5058458;28;20735;-73
2021/10/15 03:08:26;;;;;;;0.88;0.52;;;13.10;99.90;;;;;;5054170;28;20037;-73
2021/10/15 03:10:51;;;;;;;1.13;1.00;;;13.10;99.90;;;;;;5055421;28;20094;-73
2021/10/15 03:13:17;;;;;;;0.77;0.77;;;13.10;99.90;;;;;;5059697;28;20475;-73
2021/10/15 03:15:42;;;;;;;0.75;0.45;;;13.10;99.90;;;;;;5054697;28;20025;-73
2021/10/15 03:18:08;;;;;;;0.47;0.47;;;13.10;99.90;;;;;;5049954;28;20087;-73
2021/10/15 03:20:35;;;;;;;0.57;0.45;;;13.10;99.90;;;;;;5053065;28;20148;-72
2021/10/15 03:23:01;;;;;;;1.80;0.93;;;13.10;99.90;;;;;;5063668;28;20466;-73
2021/10/15 03:25:26;;;;;;;0.85;0.63;;;13.10;99.90;;;;;;5058801;28;20029;-73
2021/10/15 03:27:52;;;;;;;0.30;0.30;;;13.10;99.90;;;;;;5054484;28;20112;-73
2021/10/15 03:30:17;;;;;;;1.55;1.00;;;13.10;99.90;;;;;;5060880;28;20407;-74
2021/10/15 03:32:43;;;;;;;0.55;0.55;;;13.10;99.90;;;;;;5064017;28;20036;-73
2021/10/15 03:35:08;;;;;;;0.22;0.22;;;13.10;99.90;;;;;;5063749;28;20019;-73
2021/10/15 03:37:34;;;;;;;0.30;0.30;;;13.20;99.90;;;;;;5063636;28;20369;-73
2021/10/15 03:39:59;;;;;;;0.38;0.38;;;13.20;99.90;;;;;;5058961;28;20048;-73
2021/10/15 03:42:25;;;;;;;0.77;0.77;;;13.20;99.90;;;;;;5063933;28;20116;-73
2021/10/15 03:44:51;;;;;;;3.22;0.77;;;13.20;99.90;;;;;;5054956;28;20380;-74
2021/10/15 03:47:16;;;;;;;2.72;0.85;;;13.20;99.90;;;;;;5060387;28;20024;-73
2021/10/15 03:49:42;;;;;;;1.88;0.80;;;13.20;99.90;;;;;;5062790;28;20032;-72
2021/10/15 03:52:07;;;;;;;0.80;0.40;;;13.20;99.90;;;;;;5059280;28;20029;-73
2021/10/15 03:54:33;;;;;;;1.13;0.63;;;13.20;99.90;;;;;;5058411;28;20100;-73
2021/10/15 03:56:58;;;;;;;2.20;1.65;;;13.20;99.90;;;;;;5058930;28;20361;-74
2021/10/15 03:59:23;;;;;;;0.35;0.35;;;13.30;99.90;;;;;;5060813;28;20021;-73
2021/10/15 04:01:49;;;;;;;0.98;0.65;;;13.30;99.90;;;;;;5058120;28;20124;-73
2021/10/15 04:04:15;;;;;;;0.65;0.65;;;13.30;99.90;;;;;;5056634;28;20554;-73
2021/10/15 04:06:40;;;;;;;0.45;0.45;;;13.30;99.90;;;;;;5067110;28;20499;-73
2021/10/15 04:09:06;;;;;;;0.63;0.60;;;13.30;99.90;;;;;;5056692;28;20025;-73
2021/10/15 04:11:32;;;;;;;3.05;1.95;;;13.30;99.90;;;;;;5058343;28;20024;-72
2021/10/15 04:13:58;;;;;;;3.63;0.77;;;13.30;99.90;;;;;;5056472;28;20028;-70
2021/10/15 04:16:24;;;;;;;0.63;0.63;;;13.30;99.90;;;;;;5061387;28;20110;-70
2021/10/15 04:18:50;;;;;;;0.60;0.30;;;13.20;99.90;;;;;;5060905;28;20075;-71
2021/10/15 04:21:15;;;;;;;0.65;0.60;;;13.20;99.90;;;;;;5063587;28;20589;-71
2021/10/15 04:23:41;;;;;;;0.20;0.20;;;13.20;99.90;;;;;;5063388;28;20048;-70
2021/10/15 04:26:07;;;;;;;0.47;0.47;;;13.20;99.90;;;;;;5060915;28;20491;-70
2021/10/15 04:28:34;;;;;;;1.08;0.93;;;13.20;99.90;;;;;;5057027;28;20035;-74
2021/10/15 04:31:00;;;;;;;0.40;0.40;;;13.20;99.90;;;;;;5060043;28;20023;-75
2021/10/15 04:33:26;;;;;;;1.58;1.30;;;13.20;99.90;;;;;;5061334;28;20207;-75
2021/10/15 04:35:52;;;;;;;0.22;0.22;;;13.20;99.90;;;;;;5059895;28;20089;-75
2021/10/15 04:38:17;;;;;;;3.13;1.50;;;13.20;99.90;;;;;;5059559;28;20029;-74
2021/10/15 04:40:43;;;;;;;0.35;0.35;;;13.20;99.90;;;;;;5065683;28;20062;-74
2021/10/15 04:43:09;;;;;;;0.65;0.65;;;13.20;99.90;;;;;;5060876;28;20599;-74
2021/10/15 04:45:34;;;;;;;0.17;0.10;;;13.20;99.90;;;;;;5069248;28;20386;-83
2021/10/15 04:48:00;;;;;;;0.75;0.68;;;13.10;99.90;;;;;;5047715;28;20028;-73
2021/10/15 04:50:26;;;;;;;1.15;0.95;;;13.20;99.90;;;;;;5052995;28;20666;-73
2021/10/15 04:52:51;;;;;;;0.47;0.47;;;13.20;99.90;;;;;;5057064;28;20029;-73
2021/10/15 04:55:17;;;;;;;2.55;0.85;;;13.20;99.90;;;;;;5056360;28;20029;-74
2021/10/15 04:57:42;;;;;;;0.20;0.20;;;13.20;99.90;;;;;;5056397;28;20059;-74
2021/10/15 05:00:08;;;;;;;0.90;0.68;;;13.20;99.90;;;;;;5062419;28;20025;-73
2021/10/15 05:02:41;;;;;;;1.13;1.05;;;13.20;99.90;;;;;;5065327;28;20029;-74
2021/10/15 05:05:08;;;;;;;0.50;0.50;;;13.20;99.90;;;;;;5060861;28;20079;-73
2021/10/15 05:07:34;;;;;;;0.22;0.22;;;13.20;99.90;;;;;;5062853;28;20024;-74
2021/10/15 05:10:00;;;;;;;0.03;0.03;;;13.20;99.90;;;;;;5065655;28;20050;-73
2021/10/15 05:12:26;;;;;;;0.28;0.28;;;13.20;99.90;;;;;;5062909;28;20024;-78
2021/10/15 05:14:51;;;;;;;0.30;0.30;;;13.20;99.90;;;;;;5061299;28;20032;-72
2021/10/15 05:17:17;;;;;;;4.07;1.05;;;13.20;99.90;;;;;;5061763;28;20074;-72
2021/10/15 05:19:43;;;;;;;0.32;0.32;;;13.20;99.90;;;;;;5065006;28;20017;-71
2021/10/15 05:22:09;;;;;;;0.22;0.22;;;13.10;99.90;;;;;;5065630;28;20115;-72
2021/10/15 05:24:35;;;;;;;0.45;0.25;;;13.10;99.90;;;;;;5067347;28;20032;-72
2021/10/15 05:27:00;;;;;;;1.10;1.05;;;13.10;99.90;;;;;;5058895;28;20033;-72
2021/10/15 05:29:26;;;;;;;0.65;0.63;;;13.10;99.90;;;;;;5067818;28;20016;-71
2021/10/15 05:31:52;;;;;;;1.00;1.00;;;13.10;99.90;;;;;;5068100;28;20489;-72
2021/10/15 05:34:17;;;;;;;1.17;1.02;;;13.00;99.90;;;;;;5067786;28;20036;-72
2021/10/15 05:36:43;;;;;;;0.15;0.15;;;13.10;99.90;;;;;;5065320;28;20748;-71
2021/10/15 05:39:08;;;;;;;1.00;0.63;;;13.00;99.90;;;;;;5067800;28;20020;-71
2021/10/15 05:41:34;;;;;;;2.55;0.40;;;13.10;99.90;;;;;;5068232;28;20028;-71
2021/10/15 05:44:00;;;;;;;1.50;1.40;;;13.10;99.90;;;;;;5068169;28;20028;-71
2021/10/15 05:46:25;;;;;;;0.25;0.25;;;13.10;99.90;;;;;;5057302;28;20637;-72
2021/10/15 05:48:51;;;;;;;0.80;0.75;;;13.10;99.90;;;;;;5058020;28;20035;-72
2021/10/15 05:51:16;;;;;;;1.98;0.63;;;13.10;99.90;;;;;;5067828;28;20062;-72
2021/10/15 05:53:43;;;;;;;0.40;0.40;;;13.10;99.90;;;;;;5067259;28;20021;-71
2021/10/15 05:59:03;;;;;;;0.63;0.63;;;13.20;99.90;;;;;;5062661;28;20032;-72
2021/10/15 06:01:29;;;;;;;0.20;0.20;;;13.20;99.90;;;;;;5067486;28;20036;-72
2021/10/15 06:13:32;;;;;;;0.63;0.57;;;13.20;99.90;;;;;;5066070;28;20504;-72
2021/10/15 06:14:35;;;;;;;0.40;0.40;;;13.30;99.90;;;;;;5068086;28;20032;-72
2021/10/15 06:17:07;;;;;;;0.30;0.30;;;13.30;99.90;;;;;;5057229;28;20016;-72
2021/10/15 06:19:42;;;;;;;0.85;0.85;;;13.30;99.90;;;;;;5055742;28;20020;-71
2021/10/15 06:22:08;;;;;;;0.55;0.55;;;13.30;99.90;;;;;;5065850;28;20115;-72
2021/10/15 06:24:33;;;;;;;2.72;1.08;;;13.20;99.90;;;;;;5056892;28;20954;-71
2021/10/15 06:26:59;;;;;;;0.63;0.63;;;13.20;99.90;;;;;;5061819;28;20036;-72
2021/10/15 06:29:24;;;;;;;0.20;0.20;;;13.30;99.90;;;;;;5067108;28;20351;-72
2021/10/15 06:31:50;;;;;;;0.00;0.00;;;13.30;99.90;;;;;;5067258;28;20028;-72
2021/10/15 06:34:15;;;;;;;0.00;0.00;;;13.30;99.90;;;;;;5060622;28;20037;-72
2021/10/15 06:36:41;;;;;;;0.55;0.55;;;13.30;99.90;;;;;;5060560;28;20051;-73
2021/10/15 06:39:06;;;;;;;0.30;0.30;;;13.30;99.90;;;;;;5066984;28;20047;-72
2021/10/15 06:41:32;;;;;;;0.52;0.40;;;13.40;99.90;;;;;;5064217;28;20028;-72
2021/10/15 06:43:57;;;;;;;0.30;0.28;;;13.40;99.90;;;;;;5053665;28;20024;-71
2021/10/15 06:46:23;;;;;;;1.85;1.38;;;13.30;99.90;;;;;;5063051;28;20029;-72
2021/10/15 06:48:48;;;;;;;1.40;1.23;;;13.30;99.90;;;;;;5054625;28;20055;-72
2021/10/15 06:51:14;;;;;;;0.00;0.00;;;13.40;99.90;;;;;;5057276;28;20353;-72
2021/10/15 06:53:39;;;;;;;0.45;0.30;;;13.40;99.90;;;;;;5053432;28;20021;-72
2021/10/15 06:56:05;;;;;;;0.45;0.45;;;13.30;99.90;;;;;;5067054;28;20024;-72
2021/10/15 06:58:34;;;;;;;0.75;0.75;;;13.40;99.90;;;;;;5065678;28;20029;-72
2021/10/15 07:00:59;;;;;;;0.47;0.28;;;13.40;99.90;;;;;;5059580;28;20037;-72
2021/10/15 07:03:25;;;;;;;0.38;0.38;;;13.40;99.90;;;;;;5065766;28;20661;-72
2021/10/15 07:05:50;;;;;;;0.03;0.03;;;13.40;99.90;;;;;;5069199;28;20391;-72
2021/10/15 07:08:16;;;;;;;0.13;0.13;;;13.40;99.90;;;;;;5070433;28;20028;-72
2021/10/15 07:10:41;;;;;;;0.03;0.03;;;13.50;99.90;;;;;;5069767;28;20032;-72
2021/10/15 07:13:07;;;;;;;1.50;1.40;;;13.50;99.90;;;;;;5059499;28;20036;-72
2021/10/15 07:15:32;;;;;;;0.43;0.40;;;13.50;99.90;;;;;;5063721;28;20024;-72
2021/10/15 07:17:58;;;;;;;4.45;1.05;;;13.50;99.90;;;;;;5070297;28;20021;-71
2021/10/15 07:20:27;;;;;;;0.55;0.55;;;13.50;99.90;;;;;;5062831;28;20115;-72
2021/10/15 07:22:56;;;;;;;0.00;0.00;;;13.50;99.90;;;;;;5065635;28;20061;-71
2021/10/15 07:25:22;;;;;;;0.08;0.08;;;13.60;99.90;;;;;;5059900;28;20094;-72
2021/10/15 07:27:48;;;;;;;0.28;0.28;;;13.60;99.90;;;;;;5070567;28;20434;-71
2021/10/15 07:30:14;;;;;;;0.22;0.22;;;13.60;99.90;;;;;;5070328;28;20076;-72
2021/10/15 07:32:40;;;;;;;1.10;0.95;;;13.60;99.90;;;;;;5070167;28;20017;-73
2021/10/15 07:35:06;;;;;;;0.43;0.43;;;13.60;99.90;;;;;;5066366;28;20025;-72
2021/10/15 07:37:32;;;;;;;0.20;0.20;;;13.60;99.90;;;;;;5070763;28;20387;-72
2021/10/15 07:39:57;;;;;;;0.57;0.57;;;13.70;99.90;;;;;;5056116;28;20086;-72
2021/10/15 07:42:23;;;;;;;0.20;0.20;;;13.70;99.90;;;;;;5069711;28;20065;-72
2021/10/15 07:44:49;;;;;;;0.55;0.28;;;13.70;99.90;;;;;;5056774;28;20071;-72
2021/10/15 07:47:15;;;;;;;0.20;0.20;;;13.70;99.90;;;;;;5069721;28;20487;-72
2021/10/15 07:49:40;;;;;;;0.77;0.70;;;13.80;99.90;;;;;;5066279;28;20115;-72
2021/10/15 07:52:06;;;;;;;1.83;0.38;;;13.80;99.90;;;;;;5068841;28;20029;-72
2021/10/15 07:54:33;;;;;;;0.17;0.17;;;13.80;99.90;;;;;;5069435;28;20021;-72
2021/10/15 07:56:59;;;;;;;10.23;1.17;;;13.80;99.90;;;;;;5068644;28;20031;-72
2021/10/15 07:59:25;;;;;;;0.63;0.43;;;13.90;99.90;;;;;;5069019;28;20033;-72
2021/10/15 08:01:50;;;;;;;0.38;0.38;;;13.80;99.90;;;;;;5070131;28;20059;-72
2021/10/15 08:04:16;;;;;;;0.20;0.20;;;13.90;99.90;;;;;;5069352;28;20564;-72
2021/10/15 08:06:41;;;;;;;3.33;0.77;;;13.90;99.90;;;;;;5058183;28;20033;-72
2021/10/15 08:09:07;;;;;;;0.13;0.13;;;13.90;99.90;;;;;;5069283;28;20032;-72
2021/10/15 08:11:32;;;;;;;0.55;0.32;;;13.90;99.90;;;;;;5069580;28;20108;-72
2021/10/15 08:13:58;;;;;;;0.28;0.20;;;14.00;99.90;;;;;;5069055;28;20024;-71
2021/10/15 08:16:23;;;;;;;0.10;0.10;;;14.00;99.90;;;;;;5063607;28;20028;-72
2021/10/15 08:18:49;;;;;;;0.25;0.25;;;14.10;99.90;;;;;;5055479;28;20017;-72
2021/10/15 08:21:16;;;;;;;0.40;0.40;;;14.10;99.90;;;;;;5069129;28;20467;-72
2021/10/15 08:23:44;;;;;;;0.10;0.10;;;14.10;99.90;;;;;;5068922;28;20059;-72
2021/10/15 08:26:09;;;;;;;0.20;0.20;;;14.20;99.90;;;;;;5068121;28;20496;-72
2021/10/15 08:28:35;;;;;;;0.28;0.20;;;14.10;99.90;;;;;;5065278;28;20036;-72
2021/10/15 08:31:02;;;;;;;2.28;0.80;;;14.10;99.90;;;;;;5069347;28;20107;-72
2021/10/15 08:33:27;;;;;;;0.43;0.22;;;14.00;99.90;;;;;;5068428;28;20028;-72
2021/10/15 08:35:53;;;;;;;0.40;0.40;;;14.10;99.90;;;;;;5068823;28;20020;-71
2021/10/15 08:38:19;;;;;;;0.20;0.20;;;14.10;99.90;;;;;;5063726;28;20032;-72
2021/10/15 08:40:48;;;;;;;0.63;0.32;;;14.20;99.90;;;;;;5055803;28;20032;-71
2021/10/15 08:43:13;;;;;;;0.10;0.10;;;14.20;99.90;;;;;;5068409;28;20032;-71
2021/10/15 08:45:40;;;;;;;0.10;0.10;;;14.20;99.90;;;;;;5068584;28;20705;-72
2021/10/15 08:48:06;;;;;;;0.40;0.38;;;14.30;99.90;;;;;;5067597;28;20481;-71
2021/10/15 08:50:32;;;;;;;0.00;0.00;;;14.20;99.90;;;;;;5059860;28;20043;-72
2021/10/15 08:52:58;;;;;;;0.55;0.45;;;14.30;99.90;;;;;;5069124;28;20050;-73
2021/10/15 08:55:24;;;;;;;0.30;0.30;;;14.30;99.90;;;;;;5068884;28;20035;-71
2021/10/15 08:57:57;;;;;;;0.25;0.25;;;14.30;99.90;;;;;;5068891;28;20024;-73
2021/10/15 09:00:35;;;;;;;0.40;0.40;;;14.20;99.90;;;;;;5056297;28;20383;-72
2021/10/15 09:03:21;;;;;;;0.10;0.10;;;14.30;99.90;;;;;;5063737;28;20036;-71
2021/10/15 09:05:54;;;;;;;0.20;0.20;;;14.30;99.90;;;;;;5036321;28;20028;-73
2021/10/15 09:08:21;;;;;;;0.20;0.20;;;14.30;99.90;;;;;;5054943;28;20024;-72
2021/10/15 09:10:46;;;;;;;0.00;0.00;;;14.30;99.90;;;;;;5068462;28;20029;-73
2021/10/15 09:13:18;;;;;;;0.17;0.17;;;14.30;99.90;;;;;;5065798;28;20353;-72
2021/10/15 09:15:48;;;;;;;0.03;0.03;;;14.30;99.90;;;;;;5066216;28;20052;-72
2021/10/15 09:18:20;;;;;;;0.13;0.13;;;14.30;99.90;;;;;;5056842;28;20032;-72
2021/10/15 09:20:48;;;;;;;0.20;0.20;;;14.30;99.90;;;;;;5069063;28;20032;-72
2021/10/15 09:23:14;;;;;;;0.13;0.13;;;14.40;99.90;;;;;;5059924;28;20052;-71
2021/10/15 09:25:42;;;;;;;0.55;0.55;;;14.40;99.90;;;;;;5062636;28;20032;-72
2021/10/15 09:28:20;;;;;;;0.10;0.10;;;14.40;99.90;;;;;;5067799;28;20020;-73
2021/10/15 09:30:49;;;;;;;0.45;0.45;;;14.40;99.90;;;;;;5050658;28;20056;-73
2021/10/15 09:33:18;;;;;;;0.30;0.30;;;14.40;99.90;;;;;;5061375;28;20761;-72
2021/10/15 09:35:43;;;;;;;0.25;0.25;;;14.50;99.90;;;;;;5065463;28;20476;-71
2021/10/15 09:38:10;;;;;;;0.47;0.47;;;14.60;99.60;;;;;;5068154;28;20013;-72
2021/10/15 09:40:44;;;;;;;0.25;0.17;;;14.60;99.60;;;;;;5067994;28;20360;-72
2021/10/15 09:43:11;;;;;;;0.22;0.22;;;14.60;99.10;;;;;;5052603;28;20108;-72
2021/10/15 09:45:45;;;;;;;0.38;0.38;;;14.70;98.90;;;;;;5063891;28;20036;-72
2021/10/15 09:48:38;;;;;;;0.68;0.40;;;14.60;98.80;;;;;;5058352;28;20213;-72
2021/10/15 09:51:21;;;;;;;0.03;0.03;;;14.50;98.80;;;;;;5068647;28;20028;-72
2021/10/15 09:54:14;;;;;;;0.00;0.00;;;14.50;99.10;;;;;;5067594;28;20154;-73
2021/10/15 09:56:45;;;;;;;0.15;0.15;;;14.50;99.20;;;;;;5067906;28;20226;-72
2021/10/15 09:59:11;;;;;;;0.10;0.10;;;14.50;99.00;;;;;;5064563;28;20047;-72
2021/10/15 10:02:06;;;;;;;0.65;0.35;;;14.50;99.30;;;;;;5066135;28;20032;-72
2021/10/15 10:04:31;;;;;;;0.30;0.30;;;14.50;98.90;;;;;;5032561;28;20560;-72
2021/10/15 10:06:59;;;;;;;0.20;0.20;;;14.50;99.00;;;;;;5067658;28;20056;-71
2021/10/15 10:09:25;;;;;;;0.10;0.10;;;14.40;98.80;;;;;;5053184;28;20143;-72
2021/10/15 10:11:51;;;;;;;0.50;0.50;;;14.50;98.80;;;;;;5067993;28;20028;-72
2021/10/15 10:14:18;;;;;;;0.10;0.10;;;14.50;98.80;;;;;;5064564;28;20468;-71
2021/10/15 10:16:45;;;;;;;0.20;0.20;;;14.50;98.70;;;;;;5068058;28;20074;-71
2021/10/15 10:19:11;;;;;;;0.43;0.43;;;14.60;98.40;;;;;;5061091;28;20662;-71
2021/10/15 10:21:38;;;;;;;0.30;0.30;;;14.60;98.70;;;;;;5067820;28;20036;-73
2021/10/15 10:24:14;;;;;;;0.80;0.80;;;14.60;98.50;;;;;;5065492;28;20052;-72
2021/10/15 10:26:48;;;;;;;0.20;0.20;;;14.70;98.50;;;;;;5058337;28;20021;-72
2021/10/15 10:29:14;;;;;;;1.35;0.90;;;14.60;98.20;;;;;;5057753;28;20033;-73
2021/10/15 10:31:40;;;;;;;0.08;0.08;;;14.60;98.70;;;;;;5058186;28;20029;-72
2021/10/15 10:34:10;;;;;;;0.43;0.43;;;14.50;98.60;;;;;;5067845;28;20065;-72
2021/10/15 10:36:38;;;;;;;1.60;0.20;;;14.50;99.30;;;;;;5066954;28;20027;-73
2021/10/15 10:39:19;;;;;;;0.20;0.20;;;14.50;99.90;;;;;;5063254;28;20678;-72
2021/10/15 10:42:07;;;;;;;0.17;0.17;;;14.40;99.90;;;;;;5063990;28;20058;-72
2021/10/15 10:44:35;;;;;;;0.10;0.10;;;14.30;99.90;;;;;;5071013;28;20090;-72
2021/10/15 10:47:11;;;;;;;0.10;0.10;;;14.30;99.90;;;;;;5071484;28;20021;-72
2021/10/15 10:49:37;;;;;;;1.80;1.52;;;14.10;99.90;;;;;;5067049;28;20037;-72
2021/10/15 10:52:18;;;;;;;4.20;1.30;;;13.90;99.90;;;;;;5068067;28;20112;-72
2021/10/15 10:54:45;;;;;;;0.20;0.20;;;13.80;99.90;;;;;;5066598;28;20093;-71
2021/10/15 10:57:20;;;;;;;0.20;0.20;;;13.60;99.90;;;;;;5070554;28;20024;-72
2021/10/15 10:59:46;;;;;;;1.05;0.85;;;13.50;99.90;;;;;;5058447;28;20101;-72
2021/10/15 11:02:20;;;;;;;2.38;0.28;;;13.40;99.90;;;;;;5071056;28;20433;-72
2021/10/15 11:04:51;;;;;;;0.40;0.32;;;13.40;99.90;;;;;;5070767;28;20036;-72
2021/10/15 11:07:16;;;;;;;0.38;0.08;;;13.40;99.90;;;;;;5071259;28;20033;-72
2021/10/15 11:09:49;;;;;;;0.38;0.22;;;13.40;99.90;;;;;;5064034;28;20533;-72
2021/10/15 11:12:27;;;;;;;0.25;0.25;;;13.40;99.90;;;;;;5071001;28;20043;-72
2021/10/15 11:15:05;;;;;;;0.10;0.10;;;13.30;99.90;;;;;;5069711;28;20047;-72
2021/10/15 11:17:38;;;;;;;0.10;0.10;;;13.30;99.90;;;;;;5066702;28;20020;-71
2021/10/15 11:20:11;;;;;;;0.73;0.73;;;13.30;99.90;;;;;;5071205;28;20475;-72
2021/10/15 11:22:39;;;;;;;1.15;0.70;;;13.30;99.90;;;;;;5070424;28;20051;-72
2021/10/15 11:25:09;;;;;;;0.20;0.20;;;13.20;99.90;;;;;;5071159;28;20028;-72
2021/10/15 11:27:35;;;;;;;0.43;0.43;;;13.30;99.90;;;;;;5069646;28;20039;-72
2021/10/15 11:30:03;;;;;;;0.77;0.65;;;13.20;99.90;;;;;;5070452;28;20016;-72
2021/10/15 11:32:55;;;;;;;0.30;0.30;;;13.30;99.90;;;;;;5069402;28;20050;-72
2021/10/15 11:35:29;;;;;;;0.52;0.52;;;13.30;99.90;;;;;;5066094;28;20063;-72
2021/10/15 11:37:58;;;;;;;0.20;0.20;;;13.30;99.90;;;;;;5070670;28;20272;-72
2021/10/15 11:40:27;;;;;;;0.60;0.57;;;13.30;99.90;;;;;;5066775;28;20075;-72
2021/10/15 11:43:04;;;;;;;0.47;0.47;;;13.30;99.90;;;;;;5067439;28;20020;-72
2021/10/15 11:45:32;;;;;;;1.67;0.95;;;13.20;99.90;;;;;;5070842;28;20033;-72
2021/10/15 11:48:04;;;;;;;0.30;0.20;;;13.10;99.90;;;;;;5070497;28;20474;-72
2021/10/15 11:50:51;;;;;;;0.20;0.20;;;13.10;99.90;;;;;;5068226;28;20033;-72
2021/10/15 11:53:20;;;;;;;0.30;0.13;;;13.10;99.90;;;;;;5067235;28;20020;-72
2021/10/15 11:55:46;;;;;;;0.50;0.40;;;13.10;99.90;;;;;;5070061;28;20028;-72
2021/10/15 11:58:19;;;;;;;0.93;0.82;;;13.10;99.90;;;;;;5057370;28;20017;-72
2021/10/15 12:01:07;;;;;;;0.10;0.10;;;13.00;99.90;;;;;;5068869;28;20101;-72
2021/10/15 12:03:40;;;;;;;0.45;0.30;;;12.90;99.90;;;;;;5069747;28;20031;-72
2021/10/15 12:06:11;;;;;;;0.30;0.30;;;12.90;99.90;;;;;;5065755;28;20031;-73
2021/10/15 12:08:38;;;;;;;0.43;0.43;;;12.90;99.90;;;;;;5069235;28;20437;-73
2021/10/15 12:11:10;;;;;;;0.00;0.00;;;12.90;99.90;;;;;;5069106;28;20043;-72
2021/10/15 12:13:35;;;;;;;0.25;0.25;;;12.80;99.90;;;;;;5069521;28;20021;-73
2021/10/15 12:16:16;;;;;;;0.10;0.10;;;12.80;99.90;;;;;;5058879;28;21077;-72
2021/10/15 12:18:42;;;;;;;19.92;0.52;;;12.80;99.90;;;;;;5068423;28;20024;-72
2021/10/15 12:21:10;;;;;;;0.35;0.10;;;12.80;99.90;;;;;;5069082;28;20536;-72
2021/10/15 12:23:54;;;;;;;0.00;0.00;;;12.70;99.90;;;;;;5062817;28;20057;-72
2021/10/15 12:26:21;;;;;;;0.00;0.00;;;12.70;99.90;;;;;;5056691;28;20052;-73
2021/10/15 12:28:47;;;;;;;0.08;0.08;;;12.60;99.90;;;;;;5064738;28;20448;-73
2021/10/15 12:31:26;;;;;;;0.10;0.10;;;12.60;99.90;;;;;;5068868;28;20111;-72
2021/10/15 12:34:11;;;;;;;0.35;0.35;;;12.60;99.90;;;;;;5068220;28;20036;-73
2021/10/15 12:36:39;;;;;;;0.00;0.00;;;12.50;99.90;;;;;;5068575;28;20032;-72
2021/10/15 12:39:19;;;;;;;0.70;0.43;;;12.60;99.90;;;;;;5066153;28;20031;-72
2021/10/15 12:41:46;;;;;;;0.13;0.13;;;12.50;99.90;;;;;;5064373;28;20020;-72
2021/10/15 12:44:23;;;;;;;0.10;0.10;;;12.60;99.90;;;;;;5066433;28;20118;-72
2021/10/15 12:47:00;;;;;;;0.20;0.10;;;12.50;99.90;;;;;;5066004;28;20086;-72
2021/10/15 12:49:26;;;;;;;0.57;0.57;;;12.60;99.90;;;;;;5067622;28;20218;-73
2021/10/15 12:51:52;;;;;;;0.10;0.10;;;12.50;99.90;;;;;;5067309;28;20112;-72
2021/10/15 12:54:37;;;;;;;0.40;0.40;;;12.50;99.90;;;;;;5068444;28;20038;-72
2021/10/15 12:57:16;;;;;;;0.10;0.10;;;12.50;99.90;;;;;;5056514;28;20021;-72
2021/10/15 12:59:59;;;;;;;0.00;0.00;;;12.40;99.90;;;;;;5064141;28;20032;-72